Time;durP1;ratioP1;P1;durP2;ratioP2;P2;SDS_P1;SDS_P2;PMS_P1;PMS_P2;Temp;Humidity;BMP_temperature;BMP_pressure;BME280_temperature;BME280_humidity;BME280_pressure;Samples;Min_cycle;Max_cycle;Signal;HPM_P1;HPM_P2
2022/07/07 00:02:25;;;;;;;5.53;4.20;;;;;;;;;;10286575;28;20056;-65
2022/07/07 00:07:22;;;;;;;6.50;4.07;;;;;;;;;;10277210;28;20041;-66
2022/07/07 00:12:18;;;;;;;5.05;3.97;;;;;;;;;;10283137;28;20083;-66
2022/07/07 00:17:15;;;;;;;5.95;4.93;;;;;;;;;;10259997;28;20041;-67
2022/07/07 00:22:11;;;;;;;6.47;5.05;;;;;;;;;;10270924;28;20079;-65
2022/07/07 00:27:07;;;;;;;6.13;4.95;;;;;;;;;;10280047;28;20137;-64
2022/07/07 00:32:04;;;;;;;7.05;6.07;;;;;;;;;;10288213;28;20139;-64
2022/07/07 00:37:01;;;;;;;6.43;4.60;;;;;;;;;;10271646;28;20041;-64
2022/07/07 00:41:57;;;;;;;7.93;4.93;;;;;;;;;;10278584;28;20048;-65
2022/07/07 00:46:54;;;;;;;5.82;4.15;;;;;;;;;;10273218;28;20064;-64
2022/07/07 00:51:51;;;;;;;6.65;3.85;;;;;;;;;;10285467;28;20120;-64
2022/07/07 00:56:47;;;;;;;7.63;4.32;;;;;;;;;;10268465;28;20080;-64
2022/07/07 01:02:04;;;;;;;6.40;4.60;;;;;;;;;;10280822;28;20075;-64
2022/07/07 01:07:01;;;;;;;6.30;4.45;;;;;;;;;;10280228;28;20076;-63
2022/07/07 01:11:58;;;;;;;7.05;4.25;;;;;;;;;;10280410;28;20049;-64
2022/07/07 01:16:54;;;;;;;5.80;4.30;;;;;;;;;;10277787;28;20132;-64
2022/07/07 01:21:52;;;;;;;6.75;5.20;;;;;;;;;;10278403;28;20131;-65
2022/07/07 01:26:49;;;;;;;8.15;5.20;;;;;;;;;;10252717;28;20128;-64
2022/07/07 01:31:45;;;;;;;8.70;5.53;;;;;;;;;;10274436;28;20065;-65
2022/07/07 01:36:42;;;;;;;7.22;5.50;;;;;;;;;;10265816;28;20094;-65
2022/07/07 01:41:38;;;;;;;7.80;5.82;;;;;;;;;;10269104;28;20040;-65
2022/07/07 01:46:34;;;;;;;7.40;5.68;;;;;;;;;;10273709;28;20599;-66
2022/07/07 01:51:31;;;;;;;6.50;5.43;;;;;;;;;;10279265;28;20044;-66
2022/07/07 01:56:27;;;;;;;7.43;6.50;;;;;;;;;;10272782;28;20846;-66
2022/07/07 02:01:23;;;;;;;8.73;7.68;;;;;;;;;;10278302;28;20095;-64
2022/07/07 02:06:20;;;;;;;9.88;8.27;;;;;;;;;;10281074;28;20083;-63
2022/07/07 02:11:16;;;;;;;9.70;7.82;;;;;;;;;;10277158;28;20076;-65
2022/07/07 02:16:13;;;;;;;10.63;9.02;;;;;;;;;;10270000;28;20667;-66
2022/07/07 02:21:10;;;;;;;9.93;7.22;;;;;;;;;;10264617;28;20465;-66
2022/07/07 02:26:07;;;;;;;8.48;7.22;;;;;;;;;;10270635;28;20049;-65
2022/07/07 02:31:03;;;;;;;9.95;7.97;;;;;;;;;;10275202;28;20076;-66
2022/07/07 02:36:00;;;;;;;10.50;8.85;;;;;;;;;;10270563;28;20466;-66
2022/07/07 02:40:56;;;;;;;11.63;9.93;;;;;;;;;;10279440;28;20140;-65
2022/07/07 02:45:53;;;;;;;13.27;11.45;;;;;;;;;;10268260;28;20103;-66
2022/07/07 02:50:50;;;;;;;11.98;10.70;;;;;;;;;;10279121;28;20050;-66
2022/07/07 02:55:46;;;;;;;13.85;11.35;;;;;;;;;;10267165;28;20045;-65
2022/07/07 03:00:42;;;;;;;16.77;13.82;;;;;;;;;;10269563;28;20091;-65
2022/07/07 03:05:39;;;;;;;19.77;14.80;;;;;;;;;;10250432;28;20045;-65
2022/07/07 03:10:35;;;;;;;17.98;14.45;;;;;;;;;;10285071;28;20076;-66
2022/07/07 03:15:32;;;;;;;18.42;14.10;;;;;;;;;;10280195;28;20045;-66
2022/07/07 03:20:28;;;;;;;18.27;14.48;;;;;;;;;;10277422;28;20045;-66
2022/07/07 03:25:25;;;;;;;20.52;15.55;;;;;;;;;;10268744;28;20057;-65
2022/07/07 03:30:21;;;;;;;15.13;12.38;;;;;;;;;;10283884;28;20056;-65
2022/07/07 03:35:17;;;;;;;17.63;14.63;;;;;;;;;;10272674;28;20045;-66
2022/07/07 03:40:14;;;;;;;16.45;12.73;;;;;;;;;;10280793;28;20045;-66
2022/07/07 03:45:10;;;;;;;18.00;15.20;;;;;;;;;;10288687;28;20041;-66
2022/07/07 03:50:07;;;;;;;16.25;13.52;;;;;;;;;;10276402;28;20053;-67
2022/07/07 03:55:03;;;;;;;17.27;14.63;;;;;;;;;;10290382;28;20092;-65
2022/07/07 04:00:00;;;;;;;17.58;14.73;;;;;;;;;;10271476;28;20646;-64
2022/07/07 04:04:56;;;;;;;15.23;11.95;;;;;;;;;;10257304;28;20040;-64
2022/07/07 04:09:53;;;;;;;13.57;11.55;;;;;;;;;;10266133;28;20037;-64
2022/07/07 04:14:49;;;;;;;12.95;11.00;;;;;;;;;;10253263;28;20037;-67
2022/07/07 04:19:46;;;;;;;12.05;10.05;;;;;;;;;;10247933;28;20060;-67
2022/07/07 04:24:42;;;;;;;9.88;8.30;;;;;;;;;;10248563;28;20041;-67
2022/07/07 04:29:39;;;;;;;9.70;7.75;;;;;;;;;;10241725;28;20401;-66
2022/07/07 04:34:35;;;;;;;11.07;8.70;;;;;;;;;;10246203;28;20044;-64
2022/07/07 04:39:32;;;;;;;8.82;6.93;;;;;;;;;;10255033;28;20082;-64
2022/07/07 04:44:30;;;;;;;10.15;7.90;;;;;;;;;;10251971;28;20041;-65
2022/07/07 04:49:26;;;;;;;11.15;8.65;;;;;;;;;;10259142;28;20064;-65
2022/07/07 04:54:22;;;;;;;11.52;7.90;;;;;;;;;;10282074;28;20044;-65
2022/07/07 04:59:19;;;;;;;12.48;9.57;;;;;;;;;;10256949;28;20464;-65
2022/07/07 05:04:15;;;;;;;9.23;7.13;;;;;;;;;;10251328;28;20065;-65
2022/07/07 05:09:12;;;;;;;8.95;6.13;;;;;;;;;;10254802;28;20065;-65
2022/07/07 05:14:08;;;;;;;7.47;5.40;;;;;;;;;;10253304;28;20073;-66
2022/07/07 05:19:04;;;;;;;5.35;4.00;;;;;;;;;;10262203;28;20480;-64
2022/07/07 05:24:01;;;;;;;6.10;4.20;;;;;;;;;;10255831;28;20561;-65
2022/07/07 05:28:57;;;;;;;5.15;3.28;;;;;;;;;;10265226;28;20049;-63
2022/07/07 05:33:53;;;;;;;4.60;2.25;;;;;;;;;;10273846;28;20135;-65
2022/07/07 05:38:50;;;;;;;4.32;2.42;;;;;;;;;;10264267;28;20071;-65
2022/07/07 05:43:48;;;;;;;4.18;1.90;;;;;;;;;;10265408;28;20468;-65
2022/07/07 05:48:44;;;;;;;3.67;1.80;;;;;;;;;;10252992;28;20127;-65
2022/07/07 05:53:40;;;;;;;2.75;1.23;;;;;;;;;;10246831;28;20068;-65
2022/07/07 05:58:37;;;;;;;2.75;1.20;;;;;;;;;;10252883;28;20140;-65
2022/07/07 06:03:33;;;;;;;3.28;1.30;;;;;;;;;;10256205;28;20042;-65
2022/07/07 06:08:30;;;;;;;3.67;1.10;;;;;;;;;;10257222;28;20041;-64
2022/07/07 06:13:26;;;;;;;2.35;1.17;;;;;;;;;;10266501;28;20073;-65
2022/07/07 06:18:23;;;;;;;2.28;0.90;;;;;;;;;;10268019;28;20572;-65
2022/07/07 06:23:20;;;;;;;2.25;0.93;;;;;;;;;;10270826;28;20045;-65
2022/07/07 06:28:16;;;;;;;3.25;1.13;;;;;;;;;;10276137;28;20044;-65
2022/07/07 06:33:12;;;;;;;2.88;1.23;;;;;;;;;;10265585;28;20131;-65
2022/07/07 06:38:08;;;;;;;4.47;1.05;;;;;;;;;;10281633;28;20136;-65
2022/07/07 06:43:05;;;;;;;3.83;1.05;;;;;;;;;;10282102;28;20090;-65
2022/07/07 06:48:01;;;;;;;3.65;1.20;;;;;;;;;;10293162;28;20037;-65
2022/07/07 06:52:57;;;;;;;4.80;1.13;;;;;;;;;;10277301;28;20049;-65
2022/07/07 06:57:54;;;;;;;4.32;1.73;;;;;;;;;;10252809;28;20085;-65
2022/07/07 07:02:50;;;;;;;5.45;1.63;;;;;;;;;;10287308;28;20048;-65
2022/07/07 07:07:47;;;;;;;5.95;1.70;;;;;;;;;;10269596;28;20508;-65
2022/07/07 07:12:43;;;;;;;5.78;1.23;;;;;;;;;;10279558;28;20045;-65
2022/07/07 07:17:39;;;;;;;7.13;1.92;;;;;;;;;;10283362;28;20077;-65
2022/07/07 07:22:37;;;;;;;6.25;1.90;;;;;;;;;;10264655;28;20141;-65
2022/07/07 07:27:34;;;;;;;7.25;1.73;;;;;;;;;;10258767;28;20057;-65
2022/07/07 07:32:30;;;;;;;5.90;1.98;;;;;;;;;;10259098;28;20100;-65
2022/07/07 07:37:27;;;;;;;6.97;1.98;;;;;;;;;;10260118;28;20072;-65
2022/07/07 07:42:23;;;;;;;6.47;1.85;;;;;;;;;;10260889;28;20048;-65
2022/07/07 07:47:19;;;;;;;12.40;2.63;;;;;;;;;;10257402;28;20111;-65
2022/07/07 07:52:16;;;;;;;9.27;1.75;;;;;;;;;;10253976;28;20068;-65
2022/07/07 07:57:12;;;;;;;6.22;1.90;;;;;;;;;;10284043;28;20053;-65
2022/07/07 08:02:09;;;;;;;9.27;1.52;;;;;;;;;;10266925;28;20053;-65
2022/07/07 08:07:05;;;;;;;5.57;1.20;;;;;;;;;;10283996;28;20132;-65
2022/07/07 08:12:02;;;;;;;3.88;1.55;;;;;;;;;;10280672;28;20822;-65
2022/07/07 08:16:58;;;;;;;5.20;2.08;;;;;;;;;;10284579;28;20619;-65
2022/07/07 08:21:55;;;;;;;8.23;1.40;;;;;;;;;;10279631;28;20528;-65
2022/07/07 08:26:51;;;;;;;4.22;1.35;;;;;;;;;;10282391;28;20066;-66
2022/07/07 08:31:47;;;;;;;5.32;1.75;;;;;;;;;;10279043;28;20083;-65
2022/07/07 08:36:44;;;;;;;8.93;2.55;;;;;;;;;;10288842;28;20509;-65
2022/07/07 08:41:41;;;;;;;8.35;1.95;;;;;;;;;;10290631;28;20045;-65
2022/07/07 08:46:37;;;;;;;12.95;2.88;;;;;;;;;;10267641;28;20052;-65
2022/07/07 08:51:33;;;;;;;5.15;1.77;;;;;;;;;;10267123;28;20077;-65
2022/07/07 08:56:31;;;;;;;5.53;2.08;;;;;;;;;;10280190;28;20053;-66
2022/07/07 09:01:28;;;;;;;9.15;2.15;;;;;;;;;;10258827;28;20041;-65
2022/07/07 09:06:24;;;;;;;5.15;1.45;;;;;;;;;;10262656;28;20068;-65
2022/07/07 09:11:31;;;;;;;8.77;1.63;;;;;;;;;;10252446;28;21601;-65
2022/07/07 09:16:34;;;;;;;7.35;1.70;;;;;;;;;;10260923;28;20045;-64
2022/07/07 09:21:31;;;;;;;6.85;1.75;;;;;;;;;;10257153;28;20048;-64
2022/07/07 09:26:34;;;;;;;8.00;1.75;;;;;;;;;;10254977;28;20345;-64
2022/07/07 09:31:50;;;;;;;3.80;1.20;;;;;;;;;;10251559;28;20467;-64
2022/07/07 09:42:16;;;;;;;6.18;1.90;;;;;;;;;;10265951;28;20083;-64
2022/07/07 09:47:12;;;;;;;6.53;1.33;;;;;;;;;;10266471;28;20049;-64
2022/07/07 09:52:17;;;;;;;4.22;1.27;;;;;;;;;;10263381;28;20048;-64
2022/07/07 09:57:14;;;;;;;4.40;1.38;;;;;;;;;;10282200;28;20128;-64
2022/07/07 10:02:19;;;;;;;7.93;1.63;;;;;;;;;;10270799;28;20540;-65
2022/07/07 10:07:17;;;;;;;4.38;1.52;;;;;;;;;;10276792;28;20554;-64
2022/07/07 10:12:14;;;;;;;8.27;2.38;;;;;;;;;;10263554;28;20099;-65
2022/07/07 10:17:12;;;;;;;5.13;1.83;;;;;;;;;;10265713;28;20045;-65
2022/07/07 10:22:10;;;;;;;6.82;1.55;;;;;;;;;;10262296;28;20560;-64
2022/07/07 10:27:07;;;;;;;4.15;1.50;;;;;;;;;;10257730;28;20140;-65
2022/07/07 10:32:04;;;;;;;6.20;1.30;;;;;;;;;;10283070;28;20049;-66
2022/07/07 10:37:02;;;;;;;9.63;1.80;;;;;;;;;;10258286;28;20086;-65
2022/07/07 10:42:06;;;;;;;6.78;1.92;;;;;;;;;;10265393;28;20114;-65
2022/07/07 10:47:22;;;;;;;4.70;1.10;;;;;;;;;;10251072;28;20044;-65
2022/07/07 10:52:22;;;;;;;5.38;0.82;;;;;;;;;;10248510;28;20041;-65
2022/07/07 10:57:19;;;;;;;5.53;1.50;;;;;;;;;;10263057;28;20067;-66
2022/07/07 11:02:15;;;;;;;4.28;0.80;;;;;;;;;;10274590;28;20079;-67
2022/07/07 11:07:21;;;;;;;5.63;1.23;;;;;;;;;;10275833;28;20497;-66
2022/07/07 11:12:47;;;;;;;4.90;1.23;;;;;;;;;;10285355;28;20464;-66
2022/07/07 11:17:48;;;;;;;5.63;1.48;;;;;;;;;;10243652;28;20068;-66
2022/07/07 11:22:45;;;;;;;6.15;1.50;;;;;;;;;;10262568;28;20051;-66
2022/07/07 11:27:42;;;;;;;5.85;1.17;;;;;;;;;;10270469;28;20508;-66
2022/07/07 11:32:39;;;;;;;7.88;1.25;;;;;;;;;;10278821;28;20049;-67
2022/07/07 11:37:39;;;;;;;5.15;1.00;;;;;;;;;;10256489;28;20048;-66
2022/07/07 11:42:36;;;;;;;4.00;0.85;;;;;;;;;;10267984;28;20040;-65
2022/07/07 11:47:33;;;;;;;4.72;0.68;;;;;;;;;;10261703;28;20053;-66
2022/07/07 11:52:29;;;;;;;4.95;0.90;;;;;;;;;;10265012;28;20041;-65
2022/07/07 11:57:29;;;;;;;3.40;0.70;;;;;;;;;;10253220;28;20080;-65
2022/07/07 12:02:26;;;;;;;5.38;1.55;;;;;;;;;;10234990;28;20050;-66
2022/07/07 12:07:22;;;;;;;3.67;1.00;;;;;;;;;;10253445;28;20137;-66
2022/07/07 12:12:18;;;;;;;2.97;0.60;;;;;;;;;;10254661;28;20053;-66
2022/07/07 12:17:38;;;;;;;3.85;0.82;;;;;;;;;;10244891;28;20041;-67
2022/07/07 12:22:40;;;;;;;5.40;1.33;;;;;;;;;;10252296;28;20053;-66
2022/07/07 12:27:37;;;;;;;;;;;;;;;;;;10250922;28;20136;-67
2022/07/07 12:32:33;;;;;;;6.32;1.40;;;;;;;;;;10251748;28;19964;-67
2022/07/07 12:37:39;;;;;;;8.60;2.00;;;;;;;;;;10260545;28;20048;-67
2022/07/07 12:42:36;;;;;;;9.73;2.35;;;;;;;;;;10248463;28;20040;-67
2022/07/07 12:47:33;;;;;;;8.85;1.80;;;;;;;;;;10245945;28;20118;-66
2022/07/07 12:52:30;;;;;;;7.78;1.70;;;;;;;;;;10244023;28;20144;-67
2022/07/07 12:57:27;;;;;;;10.23;2.60;;;;;;;;;;10250510;28;20625;-66
2022/07/07 13:02:24;;;;;;;9.82;2.42;;;;;;;;;;10253260;28;20509;-66
2022/07/07 13:07:22;;;;;;;19.15;3.50;;;;;;;;;;10249509;28;20055;-66
2022/07/07 13:12:18;;;;;;;11.45;1.80;;;;;;;;;;10265505;28;20484;-66
2022/07/07 13:17:22;;;;;;;14.18;2.47;;;;;;;;;;10269485;28;20509;-66
2022/07/07 13:22:18;;;;;;;13.57;2.50;;;;;;;;;;10266262;28;20132;-66
2022/07/07 13:27:21;;;;;;;18.00;2.92;;;;;;;;;;10268058;28;20094;-66
2022/07/07 13:32:18;;;;;;;13.27;2.70;;;;;;;;;;10264589;28;20044;-66
2022/07/07 13:37:14;;;;;;;12.77;2.88;;;;;;;;;;10267363;28;20513;-67
2022/07/07 13:42:10;;;;;;;15.32;2.45;;;;;;;;;;10251345;28;20200;-67
2022/07/07 13:47:07;;;;;;;15.30;2.95;;;;;;;;;;10238462;28;20049;-67
2022/07/07 13:52:04;;;;;;;13.32;2.67;;;;;;;;;;10241347;28;20553;-66
2022/07/07 13:57:05;;;;;;;15.35;2.92;;;;;;;;;;10211580;28;20108;-66
2022/07/07 14:02:02;;;;;;;15.60;2.67;;;;;;;;;;10226077;28;20179;-66
2022/07/07 14:06:59;;;;;;;16.00;2.65;;;;;;;;;;10216215;28;20137;-66
2022/07/07 14:11:55;;;;;;;13.55;2.72;;;;;;;;;;10211418;28;20073;-66
2022/07/07 14:16:51;;;;;;;12.13;2.67;;;;;;;;;;10207227;28;20069;-66
2022/07/07 14:21:48;;;;;;;11.27;2.15;;;;;;;;;;10202434;28;20062;-66
2022/07/07 14:26:44;;;;;;;15.07;2.38;;;;;;;;;;10208665;28;20095;-66
2022/07/07 14:31:40;;;;;;;13.18;2.22;;;;;;;;;;10201395;28;20144;-66
2022/07/07 14:36:37;;;;;;;10.77;2.83;;;;;;;;;;10209982;28;20623;-66
2022/07/07 14:41:36;;;;;;;17.83;2.88;;;;;;;;;;10206492;28;20080;-66
2022/07/07 14:46:32;;;;;;;11.43;2.08;;;;;;;;;;10208853;28;20219;-66
2022/07/07 14:51:30;;;;;;;15.88;3.35;;;;;;;;;;10207698;28;20041;-66
2022/07/07 14:56:26;;;;;;;15.27;3.10;;;;;;;;;;10215174;28;20062;-67
2022/07/07 15:01:23;;;;;;;11.00;1.75;;;;;;;;;;10203279;28;20191;-67
2022/07/07 15:06:19;;;;;;;12.45;2.40;;;;;;;;;;10205089;28;20042;-67
2022/07/07 15:11:15;;;;;;;11.13;2.03;;;;;;;;;;10232447;28;20141;-67
2022/07/07 15:16:12;;;;;;;11.98;2.63;;;;;;;;;;10219377;28;20057;-66
2022/07/07 15:21:14;;;;;;;16.53;2.47;;;;;;;;;;10208550;28;20066;-66
2022/07/07 15:26:10;;;;;;;15.38;2.22;;;;;;;;;;10209981;28;20104;-66
2022/07/07 15:31:07;;;;;;;12.68;3.60;;;;;;;;;;10207225;28;20085;-66
2022/07/07 15:36:04;;;;;;;11.95;2.78;;;;;;;;;;10212534;28;20041;-66
2022/07/07 15:41:13;;;;;;;13.88;2.72;;;;;;;;;;10213230;28;20053;-66
2022/07/07 15:46:15;;;;;;;13.80;2.58;;;;;;;;;;10229454;28;20314;-66
2022/07/07 15:51:12;;;;;;;15.90;2.75;;;;;;;;;;10225754;28;20045;-66
2022/07/07 15:56:09;;;;;;;15.18;3.33;;;;;;;;;;10227466;28;20115;-66
2022/07/07 16:01:07;;;;;;;14.93;3.25;;;;;;;;;;10226335;28;20053;-67
2022/07/07 16:06:04;;;;;;;23.77;4.85;;;;;;;;;;10221930;28;20137;-67
2022/07/07 16:11:00;;;;;;;24.52;2.95;;;;;;;;;;10219727;28;20132;-66
2022/07/07 16:15:56;;;;;;;16.35;2.17;;;;;;;;;;10216010;28;20120;-66
2022/07/07 16:20:53;;;;;;;13.45;2.53;;;;;;;;;;10214072;28;20111;-66
2022/07/07 16:25:50;;;;;;;15.52;2.75;;;;;;;;;;10212636;28;20045;-66
2022/07/07 16:30:46;;;;;;;9.68;2.30;;;;;;;;;;10212376;28;20497;-66
2022/07/07 16:35:43;;;;;;;15.05;2.88;;;;;;;;;;10213371;28;20052;-67
2022/07/07 16:40:39;;;;;;;17.95;3.22;;;;;;;;;;10238099;28;20065;-66
2022/07/07 16:45:35;;;;;;;16.52;4.18;;;;;;;;;;10214748;28;20128;-66
2022/07/07 16:50:32;;;;;;;17.15;4.85;;;;;;;;;;10217694;28;20081;-66
2022/07/07 16:55:28;;;;;;;19.30;4.03;;;;;;;;;;10212378;28;20485;-66
2022/07/07 17:00:25;;;;;;;23.70;4.70;;;;;;;;;;10221913;28;20061;-66
2022/07/07 17:05:21;;;;;;;18.17;3.47;;;;;;;;;;10221708;28;20148;-66
2022/07/07 17:10:18;;;;;;;16.50;3.58;;;;;;;;;;10202060;28;20128;-66
2022/07/07 17:15:14;;;;;;;18.55;3.67;;;;;;;;;;10208147;28;20137;-66
2022/07/07 17:20:11;;;;;;;18.63;2.80;;;;;;;;;;10217097;28;20145;-66
2022/07/07 17:25:08;;;;;;;19.98;3.40;;;;;;;;;;10202945;28;20053;-67
2022/07/07 17:30:04;;;;;;;19.92;3.50;;;;;;;;;;10204513;28;20080;-66
2022/07/07 17:35:01;;;;;;;14.80;3.83;;;;;;;;;;10202805;28;20821;-66
2022/07/07 17:39:57;;;;;;;22.52;4.38;;;;;;;;;;10214033;28;20056;-66
2022/07/07 17:44:53;;;;;;;17.00;3.03;;;;;;;;;;10212971;28;20561;-66
2022/07/07 17:49:50;;;;;;;12.48;3.65;;;;;;;;;;10214240;28;20080;-66
2022/07/07 17:54:46;;;;;;;20.42;4.47;;;;;;;;;;10204057;28;20077;-66
2022/07/07 17:59:42;;;;;;;15.82;2.95;;;;;;;;;;10197593;28;20069;-66
2022/07/07 18:04:39;;;;;;;18.70;4.43;;;;;;;;;;10208653;28;20068;-66
2022/07/07 18:09:36;;;;;;;22.25;5.35;;;;;;;;;;10211686;28;20096;-66
2022/07/07 18:14:32;;;;;;;24.27;4.10;;;;;;;;;;10219577;28;20148;-66
2022/07/07 18:19:29;;;;;;;27.42;5.10;;;;;;;;;;10211840;28;20081;-66
2022/07/07 18:24:25;;;;;;;18.92;3.63;;;;;;;;;;10223884;28;20088;-66
2022/07/07 18:29:21;;;;;;;18.95;4.55;;;;;;;;;;10212425;28;20076;-66
2022/07/07 18:34:18;;;;;;;19.55;3.50;;;;;;;;;;10215479;28;20111;-66
2022/07/07 18:39:14;;;;;;;19.55;4.18;;;;;;;;;;10228811;28;20046;-65
2022/07/07 18:44:10;;;;;;;19.70;3.58;;;;;;;;;;10235217;28;20103;-66
2022/07/07 18:49:07;;;;;;;18.77;4.15;;;;;;;;;;10230314;28;20499;-66
2022/07/07 18:54:04;;;;;;;25.98;5.32;;;;;;;;;;10233739;28;20110;-66
2022/07/07 18:59:02;;;;;;;23.80;3.47;;;;;;;;;;10237223;28;20042;-65
2022/07/07 19:03:59;;;;;;;18.58;3.33;;;;;;;;;;10214789;28;20068;-66
2022/07/07 19:08:55;;;;;;;25.05;4.78;;;;;;;;;;10232650;28;20134;-66
2022/07/07 19:13:52;;;;;;;19.10;4.00;;;;;;;;;;10235107;28;20171;-66
2022/07/07 19:18:48;;;;;;;19.20;5.53;;;;;;;;;;10230108;28;20053;-66
2022/07/07 19:23:44;;;;;;;19.15;3.97;;;;;;;;;;10245357;28;20487;-66
2022/07/07 19:28:41;;;;;;;28.27;4.20;;;;;;;;;;10229290;28;20049;-66
2022/07/07 19:33:38;;;;;;;22.33;4.47;;;;;;;;;;10228902;28;20076;-66
2022/07/07 19:38:34;;;;;;;21.65;4.63;;;;;;;;;;10222085;28;20561;-66
2022/07/07 19:43:30;;;;;;;26.35;4.97;;;;;;;;;;10220166;28;20072;-67
2022/07/07 19:48:28;;;;;;;18.52;5.47;;;;;;;;;;10253660;28;20041;-66
2022/07/07 19:53:25;;;;;;;17.30;4.10;;;;;;;;;;10247620;28;20116;-66
2022/07/07 19:58:22;;;;;;;38.25;6.40;;;;;;;;;;10272895;28;20052;-66
2022/07/07 20:03:19;;;;;;;21.73;5.07;;;;;;;;;;10256222;28;20057;-66
2022/07/07 20:08:15;;;;;;;23.42;4.43;;;;;;;;;;10260936;28;20095;-65
2022/07/07 20:13:11;;;;;;;22.50;3.72;;;;;;;;;;10267258;28;20049;-67
2022/07/07 20:18:08;;;;;;;22.05;5.60;;;;;;;;;;10256564;28;20048;-67
2022/07/07 20:23:04;;;;;;;21.75;4.70;;;;;;;;;;10267892;28;20140;-67
2022/07/07 20:28:00;;;;;;;20.63;4.55;;;;;;;;;;10257039;28;20056;-66
2022/07/07 20:32:57;;;;;;;22.73;4.68;;;;;;;;;;10275353;28;20056;-67
2022/07/07 20:37:53;;;;;;;19.80;5.05;;;;;;;;;;10278418;28;20064;-67
2022/07/07 20:42:49;;;;;;;19.17;3.70;;;;;;;;;;10273407;28;20140;-67
2022/07/07 20:47:46;;;;;;;25.52;3.92;;;;;;;;;;10278655;28;20440;-67
2022/07/07 20:53:02;;;;;;;22.23;3.33;;;;;;;;;;10274307;28;20520;-66
2022/07/07 20:57:59;;;;;;;21.20;3.83;;;;;;;;;;10279648;28;20128;-65
2022/07/07 21:02:56;;;;;;;16.17;3.55;;;;;;;;;;10266450;28;20505;-66
2022/07/07 21:07:52;;;;;;;17.33;4.32;;;;;;;;;;10278219;28;20079;-66
2022/07/07 21:12:49;;;;;;;21.13;3.72;;;;;;;;;;10272546;28;20132;-66
2022/07/07 21:17:45;;;;;;;18.33;3.58;;;;;;;;;;10274804;28;20107;-65
2022/07/07 21:22:41;;;;;;;22.85;3.90;;;;;;;;;;10278442;28;20144;-65
2022/07/07 21:27:38;;;;;;;20.23;3.22;;;;;;;;;;10280083;28;20091;-66
2022/07/07 21:32:38;;;;;;;16.73;3.22;;;;;;;;;;10277348;28;20045;-64
2022/07/07 21:37:35;;;;;;;21.73;4.00;;;;;;;;;;10286221;28;20079;-65
2022/07/07 21:42:31;;;;;;;23.42;4.05;;;;;;;;;;10260337;28;20091;-64
2022/07/07 21:47:27;;;;;;;19.90;3.25;;;;;;;;;;10273088;28;20136;-64
2022/07/07 21:52:24;;;;;;;16.27;2.83;;;;;;;;;;10271257;28;20092;-64
2022/07/07 21:57:21;;;;;;;24.33;3.67;;;;;;;;;;10261718;28;20049;-64
2022/07/07 22:02:17;;;;;;;16.70;3.45;;;;;;;;;;10261159;28;20083;-64
2022/07/07 22:07:13;;;;;;;13.32;2.95;;;;;;;;;;10252285;28;20036;-65
2022/07/07 22:12:11;;;;;;;16.63;3.10;;;;;;;;;;10272988;28;20072;-65
2022/07/07 22:17:08;;;;;;;21.35;3.13;;;;;;;;;;10243484;28;20132;-64
2022/07/07 22:22:04;;;;;;;13.50;2.90;;;;;;;;;;10248688;28;20044;-65
2022/07/07 22:27:00;;;;;;;15.35;3.78;;;;;;;;;;10243812;28;20050;-65
2022/07/07 22:31:56;;;;;;;18.77;2.97;;;;;;;;;;10258281;28;20061;-66
2022/07/07 22:36:53;;;;;;;15.45;2.83;;;;;;;;;;10282832;28;20131;-65
2022/07/07 22:41:49;;;;;;;15.30;2.38;;;;;;;;;;10284263;28;20056;-65
2022/07/07 22:46:46;;;;;;;17.90;2.72;;;;;;;;;;10273805;28;20132;-65
2022/07/07 22:51:42;;;;;;;21.35;3.53;;;;;;;;;;10281269;28;20049;-66
2022/07/07 22:56:39;;;;;;;13.68;3.53;;;;;;;;;;10272973;28;20083;-66
2022/07/07 23:01:35;;;;;;;20.00;3.70;;;;;;;;;;10282359;28;20128;-66
2022/07/07 23:06:31;;;;;;;19.58;2.95;;;;;;;;;;10287315;28;20045;-66
2022/07/07 23:11:28;;;;;;;12.95;2.22;;;;;;;;;;10290333;28;20083;-66
2022/07/07 23:16:24;;;;;;;16.50;2.97;;;;;;;;;;10283895;28;20120;-66
2022/07/07 23:21:21;;;;;;;13.73;2.10;;;;;;;;;;10279926;28;20044;-66
2022/07/07 23:26:17;;;;;;;17.70;3.17;;;;;;;;;;10283354;28;20045;-66
2022/07/07 23:31:13;;;;;;;17.08;2.67;;;;;;;;;;10270654;28;20073;-65
2022/07/07 23:36:10;;;;;;;14.98;3.63;;;;;;;;;;10281445;28;20131;-66
2022/07/07 23:41:07;;;;;;;12.18;2.90;;;;;;;;;;10267242;28;20049;-66
2022/07/07 23:46:03;;;;;;;16.00;2.65;;;;;;;;;;10271389;28;20768;-66
2022/07/07 23:51:00;;;;;;;14.07;2.85;;;;;;;;;;10283535;28;20128;-66
2022/07/07 23:55:56;;;;;;;10.60;1.90;;;;;;;;;;10275686;28;20057;-65
